createdAt,value
2023-10-29T00:01:47.106Z,9.92
2023-10-29T00:04:50.894Z,9.91
2023-10-29T00:07:54.342Z,9.79
2023-10-29T00:10:57.804Z,9.64
2023-10-29T00:14:01.695Z,9.54
2023-10-29T00:17:05.719Z,9.62
2023-10-29T00:20:10.794Z,9.72
2023-10-29T00:23:14.241Z,9.80
2023-10-29T00:26:17.764Z,9.71
2023-10-29T00:29:21.263Z,9.60
2023-10-29T00:32:24.915Z,9.59
2023-10-29T00:35:28.456Z,9.58
2023-10-29T00:38:32.111Z,9.63
2023-10-29T00:41:35.681Z,9.64
2023-10-29T00:44:39.363Z,9.68
2023-10-29T00:47:42.897Z,9.59
2023-10-29T00:50:46.891Z,9.43
2023-10-29T00:53:51.942Z,9.45
2023-10-29T00:56:56.392Z,9.52
2023-10-29T00:59:59.904Z,9.51
2023-10-29T01:03:04.608Z,9.40
2023-10-29T01:06:09.094Z,9.35
2023-10-29T01:09:13.783Z,9.46
2023-10-29T01:12:17.854Z,9.54
2023-10-29T01:15:21.710Z,9.54
2023-10-29T01:18:25.217Z,9.39
2023-10-29T01:21:29.880Z,9.29
2023-10-29T01:24:34.747Z,9.32
2023-10-29T01:27:38.492Z,9.34
2023-10-29T01:30:42.040Z,9.42
2023-10-29T01:33:45.575Z,9.42
2023-10-29T01:36:48.998Z,9.35
2023-10-29T01:39:52.685Z,9.35
2023-10-29T01:42:56.115Z,9.41
2023-10-29T01:45:59.624Z,9.40
2023-10-29T01:49:04.641Z,9.45
2023-10-29T01:52:08.168Z,9.55
2023-10-29T01:55:11.619Z,9.57
2023-10-29T01:58:15.317Z,9.43
2023-10-29T02:01:18.782Z,9.29
2023-10-29T02:04:26.812Z,9.29
2023-10-29T02:07:30.255Z,9.34
2023-10-29T02:10:33.717Z,9.32
2023-10-29T02:13:37.148Z,9.25
2023-10-29T02:16:41.722Z,9.04
2023-10-29T02:19:45.712Z,8.91
2023-10-29T02:22:49.205Z,8.83
2023-10-29T02:25:52.634Z,8.74
2023-10-29T02:28:56.082Z,8.71
2023-10-29T02:31:59.491Z,8.62
2023-10-29T02:35:03.617Z,8.45
2023-10-29T02:38:07.090Z,8.38
2023-10-29T02:41:10.687Z,8.41
2023-10-29T02:44:14.806Z,8.29
2023-10-29T02:47:18.424Z,8.30
2023-10-29T02:50:21.874Z,8.26
2023-10-29T02:53:25.423Z,8.21
2023-10-29T02:56:29.448Z,8.20
2023-10-29T02:59:32.976Z,8.22
2023-10-29T03:02:36.664Z,8.23
2023-10-29T03:05:53.898Z,8.03
2023-10-29T03:08:59.985Z,7.98
2023-10-29T03:12:04.868Z,7.98
2023-10-29T03:15:10.202Z,7.98
2023-10-29T03:18:15.198Z,7.97
2023-10-29T03:21:18.881Z,7.94
2023-10-29T03:24:22.353Z,7.82
2023-10-29T03:27:26.126Z,7.72
2023-10-29T03:30:29.610Z,7.70
2023-10-29T03:33:33.121Z,7.67
2023-10-29T03:36:36.680Z,7.59
2023-10-29T03:39:40.147Z,7.48
2023-10-29T03:42:43.598Z,7.42
2023-10-29T03:45:47.241Z,7.39
2023-10-29T03:48:50.781Z,7.41
2023-10-29T03:51:54.614Z,7.42
2023-10-29T03:54:58.087Z,7.40
2023-10-29T03:58:01.512Z,7.39
2023-10-29T04:01:05.275Z,7.34
2023-10-29T04:04:08.997Z,7.37
2023-10-29T04:07:12.541Z,7.41
2023-10-29T04:10:16.396Z,7.43
2023-10-29T04:13:19.883Z,7.46
2023-10-29T04:16:23.313Z,7.42
2023-10-29T04:19:27.212Z,7.44
2023-10-29T04:22:30.615Z,7.31
2023-10-29T04:25:34.160Z,7.17
2023-10-29T04:28:37.588Z,7.19
2023-10-29T04:31:41.031Z,7.21
2023-10-29T04:34:44.733Z,7.13
2023-10-29T04:37:48.218Z,7.16
2023-10-29T04:40:52.297Z,7.32
2023-10-29T04:43:55.755Z,7.35
2023-10-29T04:46:59.202Z,7.38
2023-10-29T04:50:02.854Z,7.40
2023-10-29T04:53:06.303Z,7.39
2023-10-29T04:56:09.789Z,7.44
2023-10-29T04:59:13.815Z,7.58
2023-10-29T05:02:17.652Z,7.67
2023-10-29T05:05:21.077Z,7.73
2023-10-29T05:08:24.560Z,7.73
2023-10-29T05:11:28.244Z,7.77
2023-10-29T05:14:31.868Z,7.79
2023-10-29T05:17:35.455Z,7.90
2023-10-29T05:20:39.570Z,7.97
2023-10-29T05:23:43.217Z,8.02
2023-10-29T05:26:46.820Z,8.03
2023-10-29T05:29:50.258Z,8.02
2023-10-29T05:32:53.831Z,7.91
2023-10-29T05:35:58.148Z,7.83
2023-10-29T05:39:02.018Z,7.95
2023-10-29T05:42:06.353Z,7.92
2023-10-29T05:45:11.090Z,7.95
2023-10-29T05:48:14.614Z,7.96
2023-10-29T05:51:19.881Z,8.04
2023-10-29T05:54:23.349Z,8.10
2023-10-29T05:57:26.785Z,8.07
2023-10-29T06:00:30.418Z,7.97
2023-10-29T06:03:34.482Z,8.00
2023-10-29T06:06:38.168Z,8.19
2023-10-29T06:09:41.608Z,8.28
2023-10-29T06:12:45.066Z,8.38
2023-10-29T06:15:48.594Z,8.36
2023-10-29T06:18:52.015Z,8.18
2023-10-29T06:21:56.053Z,8.15
2023-10-29T06:24:59.889Z,8.27
2023-10-29T06:28:03.793Z,8.41
2023-10-29T06:31:07.257Z,8.48
2023-10-29T06:34:10.789Z,8.64
2023-10-29T06:37:14.235Z,8.71
2023-10-29T06:40:18.221Z,8.78
2023-10-29T06:43:21.790Z,8.79
2023-10-29T06:46:25.330Z,8.81
2023-10-29T06:49:29.469Z,8.85
2023-10-29T06:52:32.949Z,8.96
2023-10-29T06:55:37.680Z,9.03
2023-10-29T06:58:41.608Z,9.12
2023-10-29T07:01:46.470Z,9.12
2023-10-29T07:04:50.299Z,9.22
2023-10-29T07:07:54.990Z,9.24
2023-10-29T07:10:58.546Z,9.19
2023-10-29T07:14:02.067Z,9.22
2023-10-29T07:17:06.029Z,9.20
2023-10-29T07:20:12.168Z,9.21
2023-10-29T07:23:16.076Z,9.25
2023-10-29T07:26:19.493Z,9.34
2023-10-29T07:29:25.756Z,9.42
2023-10-29T07:32:29.277Z,9.50
2023-10-29T07:35:32.949Z,9.57
2023-10-29T07:38:36.450Z,9.65
2023-10-29T07:41:39.938Z,9.74
2023-10-29T07:44:43.392Z,9.84
2023-10-29T07:47:46.861Z,9.98
2023-10-29T07:50:54.142Z,9.98
2023-10-29T07:54:00.576Z,9.89
2023-10-29T07:57:05.129Z,9.85
2023-10-29T08:00:11.474Z,9.94
2023-10-29T08:03:16.484Z,10.06
2023-10-29T08:06:24.379Z,10.19
2023-10-29T08:09:28.891Z,10.27
2023-10-29T08:12:32.401Z,10.30
2023-10-29T08:15:37.365Z,10.40
2023-10-29T08:18:42.035Z,10.53
2023-10-29T08:21:45.572Z,10.58
2023-10-29T08:24:50.234Z,10.56
2023-10-29T08:27:53.732Z,10.57
2023-10-29T08:30:57.204Z,10.64
2023-10-29T08:34:00.731Z,10.70
2023-10-29T08:37:04.398Z,10.80
2023-10-29T08:40:10.395Z,10.95
2023-10-29T08:43:13.883Z,11.01
2023-10-29T08:46:17.506Z,11.08
2023-10-29T08:49:21.144Z,11.12
2023-10-29T08:52:24.670Z,11.14
2023-10-29T08:55:28.988Z,11.16
2023-10-29T08:58:32.416Z,11.20
2023-10-29T09:01:35.907Z,11.31
2023-10-29T09:04:39.946Z,11.39
2023-10-29T09:07:44.041Z,11.38
2023-10-29T09:10:47.524Z,11.32
2023-10-29T09:13:51.224Z,11.36
2023-10-29T09:16:54.655Z,11.35
2023-10-29T09:19:58.152Z,11.39
2023-10-29T09:23:01.597Z,11.45
2023-10-29T09:26:05.916Z,11.55
2023-10-29T09:29:09.392Z,11.67
2023-10-29T09:32:14.474Z,11.77
2023-10-29T09:35:18.130Z,11.83
2023-10-29T09:38:21.847Z,11.84
2023-10-29T09:41:25.606Z,11.86
2023-10-29T09:44:32.159Z,11.96
2023-10-29T09:47:36.447Z,12.16
2023-10-29T09:50:40.965Z,12.19
2023-10-29T09:53:45.099Z,12.17
2023-10-29T09:56:50.587Z,12.17
2023-10-29T09:59:54.263Z,12.19
2023-10-29T10:03:00.333Z,12.23
2023-10-29T10:06:06.829Z,12.27
2023-10-29T10:09:10.940Z,12.31
2023-10-29T10:12:15.840Z,12.35
2023-10-29T10:15:20.524Z,12.43
2023-10-29T10:18:24.214Z,12.45
2023-10-29T10:21:42.247Z,12.42
2023-10-29T10:24:48.458Z,12.49
2023-10-29T10:27:54.074Z,12.57
2023-10-29T10:30:57.889Z,12.60
2023-10-29T10:34:11.693Z,12.63
2023-10-29T10:37:15.120Z,12.74
2023-10-29T10:40:23.851Z,12.80
2023-10-29T10:43:28.517Z,12.90
2023-10-29T10:46:34.985Z,13.07
2023-10-29T10:49:43.963Z,13.26
2023-10-29T10:52:48.813Z,13.37
2023-10-29T10:56:03.036Z,13.33
2023-10-29T10:59:10.332Z,13.28
2023-10-29T11:02:14.858Z,13.25
2023-10-29T11:05:18.825Z,13.27
2023-10-29T11:08:24.408Z,13.37
2023-10-29T11:11:34.342Z,13.43
2023-10-29T11:14:37.867Z,13.50
2023-10-29T11:17:52.445Z,13.57
2023-10-29T11:20:56.888Z,13.63
2023-10-29T11:24:18.222Z,13.57
2023-10-29T11:27:38.089Z,13.64
2023-10-29T11:30:41.994Z,13.67
2023-10-29T11:33:46.901Z,13.73
2023-10-29T11:36:50.950Z,13.80
2023-10-29T11:39:54.402Z,13.84
2023-10-29T11:43:14.092Z,13.84
2023-10-29T11:46:17.579Z,13.88
2023-10-29T11:49:21.517Z,13.89
2023-10-29T11:52:39.979Z,13.89
2023-10-29T11:55:43.961Z,13.84
2023-10-29T11:59:01.876Z,13.87
2023-10-29T12:02:05.652Z,13.92
2023-10-29T12:05:12.949Z,14.00
2023-10-29T12:08:17.001Z,14.11
2023-10-29T12:11:26.706Z,14.11
2023-10-29T12:14:40.863Z,14.10
2023-10-29T12:17:45.923Z,14.07
2023-10-29T12:20:50.081Z,14.03
2023-10-29T12:23:57.176Z,13.99
2023-10-29T12:27:01.233Z,14.01
2023-10-29T12:30:06.818Z,14.05
2023-10-29T12:33:20.298Z,14.13
2023-10-29T12:36:23.918Z,14.12
2023-10-29T12:39:27.719Z,14.06
2023-10-29T12:42:57.629Z,14.04
2023-10-29T12:46:01.987Z,14.06
2023-10-29T12:49:08.521Z,14.06
2023-10-29T12:52:14.024Z,14.04
2023-10-29T12:55:17.472Z,14.04
2023-10-29T12:58:21.791Z,14.00
2023-10-29T13:01:25.941Z,14.03
2023-10-29T13:04:29.386Z,14.03
2023-10-29T13:07:32.805Z,14.09
2023-10-29T13:10:36.750Z,14.09
2023-10-29T13:13:40.243Z,14.06
2023-10-29T13:16:43.847Z,14.05
2023-10-29T13:19:47.762Z,14.08
2023-10-29T13:22:51.234Z,14.06
2023-10-29T13:25:56.909Z,14.01
2023-10-29T13:29:00.822Z,14.00
2023-10-29T13:32:06.682Z,13.94
2023-10-29T13:35:10.504Z,13.87
2023-10-29T13:38:14.809Z,13.91
2023-10-29T13:41:18.436Z,13.91
2023-10-29T13:44:23.629Z,13.77
2023-10-29T13:47:27.189Z,13.64
2023-10-29T13:50:30.745Z,13.55
2023-10-29T13:53:35.027Z,13.58
2023-10-29T13:56:38.523Z,13.70
2023-10-29T13:59:42.039Z,13.78
2023-10-29T14:02:45.532Z,13.77
2023-10-29T14:05:49.218Z,13.71
2023-10-29T14:08:52.797Z,13.67
2023-10-29T14:11:56.661Z,13.70
2023-10-29T14:15:00.663Z,13.74
2023-10-29T14:18:04.514Z,13.75
2023-10-29T14:21:08.244Z,13.71
2023-10-29T14:24:11.790Z,13.61
2023-10-29T14:27:15.267Z,13.52
2023-10-29T14:30:19.245Z,13.48
2023-10-29T14:33:23.071Z,13.52
2023-10-29T14:36:26.878Z,13.53
2023-10-29T14:39:30.328Z,13.49
2023-10-29T14:42:33.851Z,13.39
2023-10-29T14:45:42.518Z,13.34
2023-10-29T14:48:46.009Z,13.33
2023-10-29T14:51:49.504Z,13.24
2023-10-29T14:54:52.976Z,13.22
2023-10-29T14:57:56.423Z,13.25
2023-10-29T15:01:03.471Z,13.19
2023-10-29T15:04:07.378Z,13.18
2023-10-29T15:07:10.884Z,13.18
2023-10-29T15:10:14.426Z,13.23
2023-10-29T15:13:17.954Z,13.19
2023-10-29T15:16:21.499Z,13.14
2023-10-29T15:19:36.696Z,13.09
2023-10-29T15:22:40.650Z,13.00
2023-10-29T15:25:44.339Z,13.01
2023-10-29T15:28:49.802Z,13.02
2023-10-29T15:31:53.942Z,12.96
2023-10-29T15:34:58.105Z,12.92
2023-10-29T15:38:01.979Z,12.88
2023-10-29T15:41:07.302Z,12.76
2023-10-29T15:44:10.769Z,12.58
2023-10-29T15:47:14.202Z,12.61
2023-10-29T15:50:17.679Z,12.66
2023-10-29T15:53:21.458Z,12.58
2023-10-29T15:56:26.826Z,12.62
2023-10-29T15:59:30.259Z,12.61
2023-10-29T16:02:33.751Z,12.54
2023-10-29T16:05:37.467Z,12.53
2023-10-29T16:08:41.368Z,12.53
2023-10-29T16:11:47.708Z,12.59
2023-10-29T16:14:52.172Z,12.61
2023-10-29T16:17:55.854Z,12.61
2023-10-29T16:20:59.391Z,12.59
2023-10-29T16:24:03.962Z,12.55
2023-10-29T16:27:07.958Z,12.58
2023-10-29T16:30:13.635Z,12.57
2023-10-29T16:33:17.392Z,12.52
2023-10-29T16:36:21.588Z,12.53
2023-10-29T16:39:26.325Z,12.46
2023-10-29T16:42:30.710Z,12.43
2023-10-29T16:45:39.298Z,12.40
2023-10-29T16:48:43.357Z,12.40
2023-10-29T16:51:47.611Z,12.29
2023-10-29T16:54:51.945Z,12.20
2023-10-29T16:57:56.145Z,12.13
2023-10-29T17:01:00.412Z,12.04
2023-10-29T17:04:06.256Z,12.04
2023-10-29T17:07:11.246Z,12.01
2023-10-29T17:10:16.614Z,11.99
2023-10-29T17:13:22.025Z,12.01
2023-10-29T17:16:26.499Z,11.99
2023-10-29T17:19:31.787Z,11.98
2023-10-29T17:22:36.401Z,12.01
2023-10-29T17:25:40.740Z,11.90
2023-10-29T17:28:45.614Z,11.89
2023-10-29T17:31:50.458Z,12.01
2023-10-29T17:34:54.941Z,12.13
2023-10-29T17:37:59.050Z,12.14
2023-10-29T17:41:04.212Z,12.18
2023-10-29T17:44:09.050Z,12.23
2023-10-29T17:47:13.076Z,12.26
2023-10-29T17:50:17.229Z,12.26
2023-10-29T17:53:21.335Z,12.25
2023-10-29T17:56:25.377Z,12.23
2023-10-29T17:59:29.969Z,12.23
2023-10-29T18:02:35.715Z,12.31
2023-10-29T18:05:39.485Z,12.41
2023-10-29T18:08:43.294Z,12.44
2023-10-29T18:11:46.907Z,12.42
2023-10-29T18:14:51.904Z,12.38
2023-10-29T18:17:55.743Z,12.28
2023-10-29T18:21:00.425Z,12.20
2023-10-29T18:24:05.822Z,12.23
2023-10-29T18:27:11.449Z,12.24
2023-10-29T18:30:16.376Z,12.16
2023-10-29T18:33:20.465Z,12.06
2023-10-29T18:36:26.866Z,12.03
2023-10-29T18:39:30.942Z,12.08
2023-10-29T18:42:35.261Z,12.05
2023-10-29T18:45:42.398Z,12.12
2023-10-29T18:48:46.593Z,12.19
2023-10-29T18:51:50.961Z,12.26
2023-10-29T18:54:56.224Z,12.37
2023-10-29T18:58:00.346Z,12.47
2023-10-29T19:01:10.031Z,12.56
2023-10-29T19:04:14.224Z,12.58
2023-10-29T19:07:18.950Z,12.67
2023-10-29T19:10:23.232Z,12.76
2023-10-29T19:13:27.254Z,12.80
2023-10-29T19:16:32.422Z,12.84
2023-10-29T19:19:38.350Z,12.86
2023-10-29T19:22:42.576Z,12.92
2023-10-29T19:25:46.617Z,12.96
2023-10-29T19:28:50.729Z,12.91
2023-10-29T19:31:55.740Z,12.88
2023-10-29T19:35:00.785Z,12.83
2023-10-29T19:38:06.513Z,12.86
2023-10-29T19:41:10.863Z,12.89
2023-10-29T19:44:15.657Z,12.89
2023-10-29T19:47:19.766Z,12.92
2023-10-29T19:50:24.656Z,12.93
2023-10-29T19:53:30.042Z,12.98
2023-10-29T19:56:34.191Z,13.02
2023-10-29T19:59:38.243Z,13.09
2023-10-29T20:02:42.590Z,13.11
2023-10-29T20:05:46.852Z,13.09
2023-10-29T20:08:52.321Z,13.09
2023-10-29T20:11:56.257Z,13.13
2023-10-29T20:15:00.392Z,13.19
2023-10-29T20:18:05.319Z,13.15
2023-10-29T20:21:14.797Z,13.14
2023-10-29T20:24:21.116Z,13.16
2023-10-29T20:27:25.029Z,13.15
2023-10-29T20:30:29.068Z,13.15
2023-10-29T20:33:33.066Z,13.14
2023-10-29T20:36:37.233Z,13.11
2023-10-29T20:39:40.938Z,13.08
2023-10-29T20:42:45.013Z,13.05
2023-10-29T20:45:53.009Z,13.02
2023-10-29T20:48:56.980Z,12.99
2023-10-29T20:52:01.041Z,12.93
2023-10-29T20:55:06.734Z,12.93
2023-10-29T20:58:10.531Z,12.94
2023-10-29T21:01:13.981Z,12.94
2023-10-29T21:04:17.622Z,12.89
2023-10-29T21:07:21.197Z,12.87
2023-10-29T21:10:27.760Z,12.94
2023-10-29T21:13:31.713Z,12.95
2023-10-29T21:16:35.208Z,12.94
2023-10-29T21:19:38.734Z,12.88
2023-10-29T21:22:42.214Z,12.88
2023-10-29T21:25:47.289Z,12.91
2023-10-29T21:28:50.822Z,12.96
2023-10-29T21:31:54.295Z,12.96
2023-10-29T21:34:57.727Z,12.93
2023-10-29T21:38:01.519Z,12.84
2023-10-29T21:41:06.274Z,12.79
2023-10-29T21:44:09.739Z,12.80
2023-10-29T21:47:13.498Z,12.84
2023-10-29T21:50:17.278Z,12.85
2023-10-29T21:53:20.744Z,12.80
2023-10-29T21:56:24.221Z,12.72
2023-10-29T21:59:27.674Z,12.60
2023-10-29T22:02:31.143Z,12.58
2023-10-29T22:05:34.747Z,12.62
2023-10-29T22:08:38.166Z,12.62
2023-10-29T22:11:41.647Z,12.56
2023-10-29T22:14:45.084Z,12.56
2023-10-29T22:17:48.528Z,12.58
2023-10-29T22:21:00.102Z,12.60
2023-10-29T22:24:04.342Z,12.56
2023-10-29T22:27:08.022Z,12.59
2023-10-29T22:30:13.727Z,12.57
2023-10-29T22:33:17.568Z,12.50
2023-10-29T22:36:21.152Z,12.50
2023-10-29T22:39:24.798Z,12.51
2023-10-29T22:42:28.360Z,12.46
2023-10-29T22:45:31.838Z,12.43
2023-10-29T22:48:35.615Z,12.38
2023-10-29T22:51:39.130Z,12.28
2023-10-29T22:54:42.731Z,12.29
2023-10-29T22:57:48.992Z,12.19
2023-10-29T23:00:52.535Z,12.16
2023-10-29T23:03:56.611Z,12.14
2023-10-29T23:07:00.397Z,12.10
2023-10-29T23:10:05.425Z,12.11
2023-10-29T23:13:09.205Z,12.15
2023-10-29T23:16:13.685Z,12.16
2023-10-29T23:19:17.195Z,12.07
2023-10-29T23:22:20.594Z,11.97
2023-10-29T23:25:24.055Z,11.96
2023-10-29T23:28:37.468Z,12.00
2023-10-29T23:31:42.115Z,12.09
2023-10-29T23:34:45.754Z,12.13
2023-10-29T23:37:49.868Z,12.12
2023-10-29T23:40:53.336Z,12.15
2023-10-29T23:43:57.355Z,12.20
2023-10-29T23:47:00.799Z,12.28
2023-10-29T23:50:06.417Z,12.39
2023-10-29T23:53:10.406Z,12.41
2023-10-29T23:56:14.156Z,12.48
2023-10-29T23:59:17.607Z,12.58
